Data for 05/15/2018

Time Sea-Level Adjusted Pressure Absolute Pressure Temperature Relative Humidity Dew Point   
(mb) (inHg) (mb) (inHg) (C) (F) (%) (C) (F)
00:05 1021 30.15 850 25.1 9 48.2 65 2.8 37.1
00:10 1021 30.15 850 25.1 9 48.2 65 2.7 36.9
00:15 1021 30.15 850 25.1 9.3 48.7 63 2.7 36.9
00:20 1021 30.15 850 25.1 9.2 48.5 64 2.8 37
00:25 1021 30.15 850 25.1 9.1 48.3 63 2.5 36.5
00:30 1021 30.15 850 25.1 8.9 48.1 64 2.5 36.5
00:35 1021 30.15 850 25.1 8.7 47.7 65 2.4 36.4
00:40 1021 30.15 850 25.1 8.7 47.7 65 2.5 36.5
00:45 1021 30.15 850 25.1 8.6 47.4 65 2.4 36.4
00:50 1021 30.15 850 25.1 8.3 47 67 2.5 36.5
00:55 1021 30.15 850 25.1 8.3 46.9 66 2.3 36.1
01:00 1021 30.15 850 25.1 8.1 46.6 64 1.8 35.3
01:05 1021 30.15 850 25.1 8 46.4 64 1.6 35
01:10 1021 30.15 850 25.1 8.2 46.8 62 1.3 34.4
01:15 1021 30.15 850 25.1 8.5 47.3 61 1.4 34.5
01:20 1021 30.15 850 25.1 8.5 47.3 61 1.4 34.5
01:25 1021 30.15 850 25.1 8.5 47.2 60 1.2 34.2
01:30 1021 30.15 850 25.1 8.4 47.1 61 1.3 34.4
01:35 1021 30.15 850 25.1 8.2 46.8 61 1.2 34.2
01:40 1021 30.15 850 25.1 8.2 46.7 61 1.1 34.1
01:45 1020 30.12 850 25.1 8.2 46.7 60 0.9 33.7
01:50 1020 30.12 850 25.1 8.2 46.8 60 0.9 33.7
01:55 1020 30.12 850 25.1 8.1 46.6 61 1.1 34.1
02:00 1020 30.12 850 25.1 8 46.3 61 1 33.7
02:05 1020 30.12 850 25.1 8 46.4 61 0.9 33.6
02:10 1020 30.12 850 25.1 8 46.4 61 0.9 33.7
02:15 1020 30.12 850 25.1 7.8 46 61 0.9 33.5
02:20 1020 30.12 850 25.1 7.5 45.5 63 0.8 33.5
02:25 1020 30.12 850 25.1 7.5 45.6 61 0.4 32.8
02:30 1020 30.12 850 25.1 8 46.4 59 0.5 33
02:35 1020 30.12 850 25.1 8.1 46.6 59 0.7 33.3
02:40 1020 30.12 850 25.1 8 46.4 59 0.6 33
02:45 1020 30.12 849 25.07 8 46.3 59 0.5 33
02:50 1020 30.12 849 25.07 8 46.3 58 0.3 32.6
02:55 1020 30.12 849 25.07 7.9 46.2 59 0.5 32.9
03:00 1020 30.12 849 25.07 8 46.5 58 0.3 32.5
03:05 1020 30.12 849 25.07 8.2 46.7 58 0.5 32.9
03:10 1020 30.12 849 25.07 8 46.3 59 0.6 33
03:15 1020 30.12 849 25.07 7.9 46.1 61 0.8 33.4
03:20 1020 30.12 849 25.07 7.6 45.6 62 0.8 33.5
03:25 1020 30.12 849 25.07 7.3 45.2 63 0.9 33.6
03:30 1020 30.12 849 25.07 7.4 45.4 62 0.6 33.2
03:35 1020 30.12 849 25.07 7.6 45.6 62 0.7 33.3
03:40 1020 30.12 849 25.07 7.6 45.6 62 0.8 33.4
03:45 1020 30.12 849 25.07 7.7 45.8 62 0.8 33.4
03:50 1020 30.12 849 25.07 8 46.3 61 0.8 33.5
03:55 1020 30.12 849 25.07 8.2 46.7 60 0.9 33.7
04:00 1020 30.12 849 25.07 8.3 46.9 60 1.1 33.9
04:05 1020 30.12 849 25.07 8.2 46.8 61 1.1 34
04:10 1020 30.12 849 25.07 8 46.5 61 1 33.8
04:15 1020 30.12 849 25.07 8 46.4 62 1.1 34
04:20 1020 30.12 849 25.07 7.9 46.3 60 0.6 33.1
04:25 1020 30.12 849 25.07 8.1 46.5 60 0.8 33.5
04:30 1020 30.12 849 25.07 8 46.3 60 0.7 33.3
04:35 1020 30.12 849 25.07 8 46.4 60 0.6 33.1
04:40 1020 30.12 849 25.07 8.1 46.6 59 0.5 33
04:45 1020 30.12 849 25.07 8.3 46.9 57 0.3 32.6
04:50 1020 30.12 849 25.07 8.3 47 58 0.6 33.1
04:55 1020 30.12 849 25.07 8.1 46.6 58 0.3 32.6
05:00 1020 30.12 849 25.07 7.7 45.9 58 0.1 32.2
05:05 1020 30.12 849 25.07 7.5 45.5 60 0.3 32.5
05:10 1020 30.12 849 25.07 7.3 45.1 60 -0 32
05:15 1020 30.12 849 25.07 6.9 44.4 59 -0.4 31.2
05:20 1020 30.12 849 25.07 7 44.6 59 -0.4 31.3
05:25 1020 30.12 849 25.07 7.2 45 58 -0.6 31
05:30 1020 30.12 849 25.07 7.4 45.2 58 -0.3 31.4
05:35 1020 30.12 849 25.07 7.5 45.6 60 0.2 32.3
05:40 1020 30.12 849 25.07 7.3 45.1 60 0.2 32.3
05:45 1020 30.12 849 25.07 7.2 44.9 61 0.3 32.5
05:50 1020 30.12 849 25.07 7 44.7 61 0.1 32.1
05:55 1020 30.12 849 25.07 6.8 44.2 62 -0.1 31.9
06:00 1020 30.12 849 25.07 6.6 43.9 61 -0.3 31.4
06:05 1020 30.12 849 25.07 6.8 44.2 61 -0.3 31.5
06:10 1020 30.12 849 25.07 6.9 44.5 59 -0.4 31.2
06:15 1020 30.12 850 25.1 7 44.5 61 -0.1 31.8
06:20 1020 30.12 850 25.1 7 44.5 60 -0.3 31.4
06:25 1020 30.12 850 25.1 6.8 44.2 60 -0.5 31.1
06:30 1020 30.12 850 25.1 6.6 43.8 60 -0.7 30.8
06:35 1020 30.12 850 25.1 6.7 44 59 -0.7 30.7
06:40 1020 30.12 850 25.1 6.8 44.2 59 -0.7 30.7
06:45 1021 30.15 850 25.1 7.1 44.7 59 -0.4 31.3
06:50 1020 30.12 850 25.1 7.1 44.7 59 -0.5 31.1
06:55 1020 30.12 850 25.1 7.2 45 59 -0.2 31.7
07:00 1020 30.12 850 25.1 7 44.7 59 -0.4 31.3
07:05 1020 30.12 850 25.1 7.1 44.7 59 -0.5 31.2
07:10 1020 30.12 850 25.1 7.4 45.3 58 -0.3 31.5
07:15 1021 30.15 850 25.1 7.6 45.7 58 -0.1 31.8
07:20 1021 30.15 850 25.1 7.7 45.9 58 0 32.1
07:25 1021 30.15 850 25.1 7.9 46.2 57 -0.2 31.6
07:30 1021 30.15 850 25.1 8.5 47.3 55 -0.1 31.9
07:35 1021 30.15 850 25.1 9 48.3 53 -0 31.9
07:40 1021 30.15 850 25.1 9.7 49.4 51 0.1 32.2
07:45 1021 30.15 850 25.1 9.8 49.7 53 0.7 33.2
07:50 1020 30.12 850 25.1 9.8 49.7 51 0.3 32.6
07:55 1020 30.12 850 25.1 10.7 51.2 49 0.5 33
08:00 1020 30.12 850 25.1 11.2 52.2 49 0.9 33.6
08:05 1020 30.12 850 25.1 11.8 53.2 48 1.3 34.3
08:10 1020 30.12 850 25.1 11.9 53.5 48 1.4 34.4
08:15 1020 30.12 850 25.1 11.9 53.3 48 1.2 34.1
08:20 1020 30.12 850 25.1 12.1 53.8 49 1.7 35
08:25 1020 30.12 850 25.1 12 53.6 48 1.3 34.3
08:30 1020 30.12 850 25.1 12.1 53.8 48 1.6 34.8
08:35 1020 30.12 850 25.1 12.4 54.4 47 1.4 34.5
08:40 1020 30.12 850 25.1 12.9 55.1 46 1.5 34.6
08:45 1020 30.12 850 25.1 13.3 56 41 0.4 32.7
08:50 1020 30.12 850 25.1 13.6 56.5 41 0.8 33.4
08:55 1020 30.12 850 25.1 14.1 57.4 39 0.5 32.9
09:00 1020 30.12 850 25.1 14.6 58.2 37 -0 32
09:05 1020 30.12 850 25.1 14.8 58.6 36 -0.2 31.6
09:10 1020 30.12 850 25.1 15 59 36 0 32.1
09:15 1020 30.12 850 25.1 15 59.1 35 -0 31.9
09:20 1020 30.12 850 25.1 15.2 59.3 35 0 32.1
09:25 1020 30.12 849 25.07 15.4 59.7 35 -0.1 31.9
09:30 1020 30.12 849 25.07 15.6 60.1 34 -0 31.9
09:35 1020 30.12 849 25.07 15.6 60.2 34 -0 32
09:40 1020 30.12 849 25.07 16 60.9 34 0.1 32.2
09:45 1020 30.12 849 25.07 15.9 60.6 34 -0 32
09:50 1020 30.12 849 25.07 15.9 60.7 34 0 32.1
09:55 1020 30.12 849 25.07 16.8 62.2 32 0.3 32.5
10:00 1020 30.12 849 25.07 17.2 62.9 31 0.2 32.3
10:05 1020 30.12 849 25.07 17 62.5 33 0.5 33
10:10 1020 30.12 849 25.07 16.2 61.2 32 -0.6 31
10:15 1020 30.12 849 25.07 16.9 62.4 32 0.1 32.2
10:20 1020 30.12 849 25.07 17.4 63.3 30 -0 31.9
10:25 1020 30.12 849 25.07 17.4 63.4 31 0.1 32.2
10:30 1020 30.12 849 25.07 17.9 64.2 32 0.9 33.7
10:35 1020 30.12 849 25.07 18.4 65.1 30 0.6 33
10:40 1020 30.12 849 25.07 17.1 62.7 33 0.7 33.3
10:45 1020 30.12 849 25.07 17.8 64.1 31 0.4 32.8
10:50 1020 30.12 849 25.07 18.3 65 30 0.4 32.7
10:55 1020 30.12 849 25.07 18.7 65.6 30 0.7 33.3
11:00 1020 30.12 849 25.07 19 66.2 29 0.6 33.1
11:05 1020 30.12 849 25.07 18.9 66 29 0.8 33.4
11:10 1020 30.12 849 25.07 18.9 66.1 30 1.1 34
11:15 1020 30.12 849 25.07 18.8 65.9 28 -0.1 31.9
11:20 1020 30.12 849 25.07 19.3 66.8 28 0.3 32.6
11:25 1020 30.12 849 25.07 18.6 65.6 31 1.5 34.7
11:30 1020 30.12 849 25.07 18.2 64.8 29 -0.1 31.8
11:35 1020 30.12 849 25.07 19 66.2 28 0.1 32.1
11:40 1020 30.12 849 25.07 19.2 66.6 26 -0.8 30.6
11:45 1020 30.12 849 25.07 19.7 67.4 26 -0.2 31.6
11:50 1020 30.12 849 25.07 19.8 67.7 27 0.4 32.7
11:55 1020 30.12 849 25.07 19.7 67.5 28 0.6 33.2
12:00 1020 30.12 849 25.07 20.3 68.5 25 -0.2 31.6
12:05 1020 30.12 849 25.07 20.2 68.4 27 0.7 33.3
12:10 1020 30.12 849 25.07 20.1 68.2 26 0.3 32.6
12:15 1020 30.12 849 25.07 20.2 68.4 27 0.6 33.1
12:20 1019 30.09 849 25.07 20.6 69 25 0 32.1
12:25 1019 30.09 849 25.07 21 69.7 23 -0.5 31.1
12:30 1019 30.09 849 25.07 21.2 70.1 24 -0.2 31.6
12:35 1019 30.09 849 25.07 21.1 70 21 -1.9 28.6
12:40 1019 30.09 849 25.07 21.2 70.2 22 -1.2 29.8
12:45 1019 30.09 848 25.04 20.8 69.4 23 -0.8 30.6
12:50 1019 30.09 848 25.04 21.2 70.2 22 -1.1 30
12:55 1019 30.09 848 25.04 21.2 70.1 21 -2.1 28.1
13:00 1019 30.09 848 25.04 21.5 70.6 21 -1.4 29.5
13:05 1019 30.09 848 25.04 21.3 70.3 20 -2.7 27.2
13:10 1019 30.09 848 25.04 21.2 70.2 20 -2.2 28
13:15 1019 30.09 848 25.04 21.7 71 19 -2.5 27.5
13:20 1019 30.09 848 25.04 21.9 71.5 20 -1.7 29
13:25 1019 30.09 848 25.04 22.3 72.2 20 -1.8 28.7
13:30 1019 30.09 848 25.04 22.3 72.1 17 -3.4 25.8
13:35 1019 30.09 848 25.04 21.6 70.9 18 -3.4 25.9
13:40 1019 30.09 848 25.04 22.3 72.1 16 -4.3 24.3
13:45 1019 30.09 848 25.04 22.4 72.3 18 -3.1 26.5
13:50 1019 30.09 848 25.04 22.4 72.4 19 -2.3 27.9
13:55 1019 30.09 848 25.04 22.5 72.4 19 -1.9 28.5
14:00 1019 30.09 848 25.04 23.1 73.6 18 -2.3 27.9
14:05 1019 30.09 848 25.04 22.6 72.7 19 -2 28.4
14:10 1019 30.09 848 25.04 22.7 72.9 17 -3.6 25.5
14:15 1019 30.09 848 25.04 23.1 73.6 17 -3 26.6
14:20 1019 30.09 848 25.04 22.9 73.2 16 -3.8 25.2
14:25 1019 30.09 848 25.04 22.6 72.7 19 -2.3 27.8
14:30 1019 30.09 848 25.04 22.1 71.8 19 -2.5 27.5
14:35 1019 30.09 848 25.04 23 73.3 17 -3.1 26.5
14:40 1019 30.09 848 25.04 23.3 73.9 18 -2.3 27.8
14:45 1018 30.06 848 25.04 22.5 72.5 18 -2.9 26.7
14:50 1018 30.06 848 25.04 22.5 72.5 18 -2.8 26.9
14:55 1018 30.06 848 25.04 22.8 73.1 18 -2.3 27.8
15:00 1018 30.06 848 25.04 23.3 73.9 18 -2.3 27.9
15:05 1018 30.06 847 25.01 23.5 74.4 17 -2.4 27.7
15:10 1018 30.06 847 25.01 23.9 75 19 -1 30.1
15:15 1018 30.06 847 25.01 23.6 74.5 18 -2.2 28.1
15:20 1018 30.06 847 25.01 23.1 73.5 19 -1.5 29.3
15:25 1018 30.06 847 25.01 22.9 73.2 19 -1.7 29
15:30 1018 30.06 847 25.01 22.7 72.8 19 -1.9 28.5
15:35 1018 30.06 847 25.01 23.1 73.6 18 -2.3 27.9
15:40 1018 30.06 847 25.01 23.1 73.5 19 -1.8 28.7
15:45 1018 30.06 847 25.01 22.6 72.8 19 -1.9 28.6
15:50 1018 30.06 847 25.01 23 73.3 20 -1.1 29.9
15:55 1018 30.06 847 25.01 22.8 73 20 -1.2 29.9
16:00 1018 30.06 847 25.01 23.1 73.5 19 -1.3 29.7
16:05 1018 30.06 847 25.01 23.4 74.2 19 -1 30.1
16:10 1018 30.06 847 25.01 24.2 75.5 18 -1.7 28.9
16:15 1018 30.06 847 25.01 24 75.3 18 -1.2 29.8
16:20 1018 30.06 847 25.01 23.4 74.2 19 -1 30.2
16:25 1018 30.06 847 25.01 23.5 74.2 20 -0.7 30.8
16:30 1018 30.06 847 25.01 24 75.2 19 -1 30.1
16:35 1018 30.06 847 25.01 23.9 75.1 19 -1.1 30
16:40 1017 30.03 847 25.01 24.1 75.3 19 -0.9 30.5
16:45 1017 30.03 847 25.01 24 75.1 18 -1.2 29.8
16:50 1017 30.03 847 25.01 23.3 73.9 20 -0.9 30.4
16:55 1017 30.03 847 25.01 23.5 74.2 20 -0.8 30.6
17:00 1017 30.03 847 25.01 23.1 73.5 21 0 32.1
17:05 1017 30.03 846 24.98 23.2 73.8 19 -1.1 30
17:10 1017 30.03 846 24.98 23.7 74.6 19 -0.9 30.4
17:15 1017 30.03 846 24.98 23.8 74.8 20 -0.6 30.9
17:20 1017 30.03 846 24.98 23.9 75 19 -0.9 30.4
17:25 1017 30.03 846 24.98 23.9 74.9 19 -1 30.3
17:30 1017 30.03 846 24.98 23.7 74.7 20 -0.5 31.2
17:35 1017 30.03 846 24.98 24 75.2 19 -0.8 30.6
17:40 1017 30.03 846 24.98 23.5 74.3 21 0.1 32.1
17:45 1017 30.03 846 24.98 23.6 74.4 21 0.2 32.3
17:50 1017 30.03 846 24.98 23.6 74.4 20 -0.6 31
17:55 1017 30.03 846 24.98 22.9 73.1 21 -0.5 31.1
18:00 1017 30.03 846 24.98 23.1 73.6 21 -0.1 31.9
18:05 1017 30.03 846 24.98 23.1 73.5 20 -0.7 30.8
18:10 1017 30.03 846 24.98 23.3 73.9 20 -0.5 31.2
18:15 1017 30.03 846 24.98 23.4 74.1 20 -0.7 30.7
18:20 1017 30.03 846 24.98 23 73.4 20 -0.7 30.8
18:25 1017 30.03 846 24.98 23 73.4 21 -0.5 31.2
18:30 1017 30.03 846 24.98 22.9 73.3 22 0.2 32.4
18:35 1017 30.03 846 24.98 22.9 73.2 20 -0.7 30.7
18:40 1017 30.03 846 24.98 23.1 73.5 20 -0.7 30.7
18:45 1017 30.03 846 24.98 22.9 73.3 20 -1.1 30.1
18:50 1017 30.03 846 24.98 22.7 72.8 21 -0.7 30.7
18:55 1017 30.03 846 24.98 22.5 72.4 21 -0.9 30.4
19:00 1017 30.03 846 24.98 22.8 73.1 20 -1.1 30
19:05 1017 30.03 846 24.98 22.4 72.4 21 -1 30.3
19:10 1017 30.03 846 24.98 21.7 71.1 22 -0.9 30.5
19:15 1017 30.03 846 24.98 21.6 70.8 22 -1 30.2
19:20 1017 30.03 846 24.98 21.7 71.1 22 -0.9 30.3
19:25 1017 30.03 846 24.98 21.6 70.9 22 -0.9 30.3
19:30 1017 30.03 846 24.98 21.4 70.6 22 -1.2 29.9
19:35 1017 30.03 846 24.98 21.4 70.6 22 -1.1 29.9
19:40 1017 30.03 846 24.98 21.3 70.4 22 -1 30.2
19:45 1017 30.03 846 24.98 21 69.9 23 -0.9 30.3
19:50 1017 30.03 846 24.98 20.9 69.7 22 -1.2 29.9
19:55 1017 30.03 846 24.98 20.9 69.6 22 -1.3 29.6
20:00 1017 30.03 846 24.98 20.7 69.3 22 -1.3 29.6
20:05 1017 30.03 846 24.98 20.7 69.3 22 -1.4 29.5
20:10 1017 30.03 846 24.98 20.7 69.2 22 -1.8 28.7
20:15 1017 30.03 846 24.98 20.7 69.3 21 -2.1 28.3
20:20 1017 30.03 846 24.98 20.6 69.1 21 -2 28.4
20:25 1017 30.03 846 24.98 20.5 68.8 21 -2.2 28
20:30 1017 30.03 846 24.98 20.2 68.4 22 -2.2 28.1
20:35 1017 30.03 846 24.98 20.1 68.2 23 -1.3 29.6
20:40 1017 30.03 846 24.98 20 67.9 22 -2.5 27.5
20:45 1017 30.03 846 24.98 19.9 67.8 21 -2.7 27.2
20:50 1017 30.03 846 24.98 19.8 67.6 23 -2.1 28.3
20:55 1017 30.03 846 24.98 19.6 67.3 24 -1.5 29.3
21:00 1017 30.03 846 24.98 19.1 66.4 30 1.5 34.7
21:05 1017 30.03 846 24.98 18.2 64.7 36 3 37.5
21:10 1017 30.03 846 24.98 17.4 63.3 39 3.4 38.1
21:15 1017 30.03 846 24.98 16.7 62.1 42 3.8 38.9
21:20 1017 30.03 846 24.98 16.2 61.1 44 4 39.2
21:25 1017 30.03 846 24.98 15.7 60.2 45 4 39.2
21:30 1017 30.03 846 24.98 15.4 59.6 46 3.8 38.9
21:35 1017 30.03 846 24.98 15.1 59.2 47 4 39.2
21:40 1017 30.03 846 24.98 14.9 58.7 48 4 39.3
21:45 1017 30.03 847 25.01 14.6 58.3 48 3.8 38.8
21:50 1017 30.03 847 25.01 14.5 58.1 47 3.4 38.2
21:55 1017 30.03 847 25.01 14.4 57.9 47 3.2 37.8
22:00 1017 30.03 847 25.01 14.4 57.8 47 3.4 38.1
22:05 1018 30.06 847 25.01 14.1 57.4 48 3.3 37.9
22:10 1018 30.06 847 25.01 14.1 57.3 46 2.8 37
22:15 1018 30.06 847 25.01 14.4 57.9 44 2.5 36.5
22:20 1018 30.06 847 25.01 14.5 58.2 45 2.9 37.3
22:25 1018 30.06 847 25.01 14.4 57.9 45 2.6 36.8
22:30 1018 30.06 847 25.01 14.3 57.8 46 2.8 37.1
22:35 1018 30.06 847 25.01 14.1 57.3 46 2.8 37
22:40 1018 30.06 847 25.01 13.8 56.9 47 2.9 37.3
22:45 1018 30.06 847 25.01 13.6 56.4 48 3 37.4
22:50 1018 30.06 847 25.01 13.4 56.2 49 2.9 37.1
22:55 1018 30.06 847 25.01 13.3 56 50 3.2 37.7
23:00 1018 30.06 847 25.01 13 55.3 51 3.2 37.8
23:05 1018 30.06 847 25.01 12.8 55 51 3.1 37.5
23:10 1018 30.06 847 25.01 12.8 55.1 52 3.2 37.7
23:15 1018 30.06 847 25.01 13 55.3 50 2.8 37
23:20 1018 30.06 847 25.01 13.1 55.6 49 2.9 37.1
23:25 1018 30.06 847 25.01 13.1 55.6 49 2.6 36.7
23:30 1018 30.06 847 25.01 13.2 55.8 49 2.7 36.9
23:35 1018 30.06 847 25.01 13.4 56.1 48 2.7 36.9
23:40 1018 30.06 847 25.01 13.5 56.2 47 2.5 36.6
23:45 1018 30.06 847 25.01 13.5 56.3 46 2.3 36.1
23:50 1018 30.06 847 25.01 13.6 56.5 46 2.3 36.2
23:55 1018 30.06 847 25.01 13.5 56.3 47 2.4 36.3
24:00 1018 30.06 847 25.01 13.5 56.4 46 2.4 36.3